Time;durP1;ratioP1;P1;durP2;ratioP2;P2;SDS_P1;SDS_P2;PMS_P1;PMS_P2;Temp;Humidity;BMP_temperature;BMP_pressure;BME280_temperature;BME280_humidity;BME280_pressure;Samples;Min_cycle;Max_cycle;Signal;HPM_P1;HPM_P2
2021/12/03 00:01:19;;;;;;;42.58;20.77;;;-0.60;99.90;;;;;;4961901;28;20470;-83
2021/12/03 00:03:46;;;;;;;72.05;31.33;;;-0.70;99.90;;;;;;4961681;28;20058;-83
2021/12/03 00:06:13;;;;;;;39.75;19.50;;;-0.70;99.90;;;;;;4962170;28;20114;-83
2021/12/03 00:08:40;;;;;;;38.03;18.73;;;-0.70;99.90;;;;;;4961895;28;20486;-82
2021/12/03 00:11:09;;;;;;;34.63;17.70;;;-0.70;99.90;;;;;;4978216;28;20030;-83
2021/12/03 00:13:34;;;;;;;38.42;19.60;;;-0.60;99.90;;;;;;4961966;28;20030;-82
2021/12/03 00:16:02;;;;;;;44.55;23.15;;;-0.60;99.90;;;;;;4978223;28;20027;-82
2021/12/03 00:18:28;;;;;;;39.58;19.83;;;-0.60;99.90;;;;;;4961917;28;20399;-83
2021/12/03 00:20:55;;;;;;;42.38;20.80;;;-0.60;99.90;;;;;;4995734;28;20120;-83
2021/12/03 00:23:25;;;;;;;34.53;18.52;;;-0.60;99.90;;;;;;4977816;28;20031;-83
2021/12/03 00:25:52;;;;;;;40.42;20.42;;;-0.60;99.90;;;;;;4961773;28;20041;-83
2021/12/03 00:28:18;;;;;;;40.03;20.02;;;-0.60;99.90;;;;;;4961616;28;20049;-83
2021/12/03 00:30:43;;;;;;;35.42;19.38;;;-0.60;99.90;;;;;;4962031;28;20027;-83
2021/12/03 00:33:37;;;;;;;40.40;21.05;;;-0.60;99.90;;;;;;4977755;28;20030;-83
2021/12/03 00:36:06;;;;;;;42.47;21.55;;;-0.60;99.90;;;;;;4961643;28;20065;-84
2021/12/03 00:38:54;;;;;;;38.22;18.40;;;-0.60;99.90;;;;;;4962094;28;20462;-82
2021/12/03 00:41:21;;;;;;;38.72;19.92;;;-0.60;99.90;;;;;;4961688;28;20042;-83
2021/12/03 00:43:51;;;;;;;44.45;24.98;;;-0.60;99.90;;;;;;4977522;28;20505;-83
2021/12/03 00:46:18;;;;;;;41.97;21.88;;;-0.60;99.90;;;;;;4961544;28;20038;-83
2021/12/03 00:48:50;;;;;;;45.33;22.05;;;-0.60;99.90;;;;;;4961421;28;20065;-82
2021/12/03 00:51:18;;;;;;;50.70;23.92;;;-0.60;99.90;;;;;;4977509;28;20046;-81
2021/12/03 00:53:45;;;;;;;42.92;20.67;;;-0.60;99.90;;;;;;4961119;28;20038;-83
2021/12/03 00:56:12;;;;;;;44.83;21.33;;;-0.60;99.90;;;;;;4961045;28;20390;-84
2021/12/03 00:58:38;;;;;;;42.38;19.92;;;-0.60;99.90;;;;;;4961324;28;20253;-84
2021/12/03 01:01:05;;;;;;;41.10;19.42;;;-0.60;99.90;;;;;;4961209;28;20034;-83
2021/12/03 01:03:32;;;;;;;44.70;20.85;;;-0.60;99.90;;;;;;4960940;28;20049;-82
2021/12/03 01:05:58;;;;;;;42.60;20.33;;;-0.60;99.90;;;;;;4961056;28;20044;-83
2021/12/03 01:08:23;;;;;;;42.67;20.60;;;-0.60;99.90;;;;;;4977238;28;20116;-84
2021/12/03 01:10:50;;;;;;;37.42;18.58;;;-0.60;99.90;;;;;;4994643;28;20022;-83
2021/12/03 01:13:16;;;;;;;39.55;19.60;;;-0.60;99.90;;;;;;4960582;28;20038;-83
2021/12/03 01:15:43;;;;;;;36.97;19.20;;;-0.60;99.90;;;;;;4961119;28;20490;-83
2021/12/03 01:18:11;;;;;;;37.92;17.90;;;-0.60;99.90;;;;;;4960791;28;20125;-84
2021/12/03 01:20:39;;;;;;;36.42;18.48;;;-0.70;99.90;;;;;;4960537;28;20359;-83
2021/12/03 01:23:05;;;;;;;35.88;18.40;;;-0.70;99.90;;;;;;4960374;28;20030;-84
2021/12/03 01:25:31;;;;;;;38.75;19.38;;;-0.70;99.90;;;;;;4960812;28;20390;-83
2021/12/03 01:27:59;;;;;;;39.15;19.10;;;-0.60;99.90;;;;;;4960870;28;20023;-84
2021/12/03 01:30:27;;;;;;;42.28;20.27;;;-0.70;99.90;;;;;;4960568;28;20035;-84
2021/12/03 01:32:53;;;;;;;43.38;19.50;;;-0.70;99.90;;;;;;4960578;28;20038;-83
2021/12/03 01:35:19;;;;;;;45.10;20.25;;;-0.70;99.90;;;;;;4976231;28;20473;-84
2021/12/03 01:37:46;;;;;;;43.58;20.65;;;-0.60;99.90;;;;;;4959519;28;20037;-84
2021/12/03 01:40:15;;;;;;;43.50;20.05;;;-0.70;99.90;;;;;;4976154;28;20121;-83
2021/12/03 01:42:44;;;;;;;43.78;18.65;;;-0.70;99.90;;;;;;4976306;28;20397;-83
2021/12/03 01:45:22;;;;;;;38.53;19.30;;;-0.70;99.90;;;;;;4960166;28;20053;-83
2021/12/03 01:47:49;;;;;;;45.15;19.88;;;-0.70;99.90;;;;;;4960205;28;20034;-83
2021/12/03 01:50:17;;;;;;;42.42;21.00;;;-0.70;99.90;;;;;;4976451;28;20129;-84
2021/12/03 01:52:43;;;;;;;49.55;20.92;;;-0.70;99.90;;;;;;4960307;28;20498;-84
2021/12/03 01:55:12;;;;;;;55.00;22.63;;;-0.70;99.90;;;;;;4960154;28;20041;-83
2021/12/03 01:57:38;;;;;;;51.28;22.63;;;-0.70;99.90;;;;;;4960380;28;20053;-83
2021/12/03 02:00:07;;;;;;;50.88;22.80;;;-0.70;99.90;;;;;;4960504;28;20030;-83
2021/12/03 02:02:38;;;;;;;52.80;23.10;;;-0.70;99.90;;;;;;4977186;28;20093;-83
2021/12/03 02:05:04;;;;;;;45.70;23.10;;;-0.70;99.90;;;;;;4975999;28;20478;-84
2021/12/03 02:07:30;;;;;;;51.25;22.27;;;-0.80;99.90;;;;;;4960262;28;20034;-84
2021/12/03 02:09:56;;;;;;;53.70;22.85;;;-0.80;99.90;;;;;;4960265;28;20406;-84
2021/12/03 02:12:21;;;;;;;57.53;23.75;;;-0.90;99.90;;;;;;4960271;28;20030;-84
2021/12/03 02:14:47;;;;;;;57.33;23.65;;;-0.80;99.90;;;;;;4960055;28;20034;-84
2021/12/03 02:17:13;;;;;;;52.30;22.73;;;-0.90;99.90;;;;;;4960162;28;20037;-84
2021/12/03 02:19:39;;;;;;;51.85;22.92;;;-0.90;99.90;;;;;;4976450;28;20034;-84
2021/12/03 02:22:05;;;;;;;56.65;24.55;;;-0.90;99.90;;;;;;4976210;28;20445;-83
2021/12/03 02:24:31;;;;;;;49.28;22.65;;;-1.00;99.90;;;;;;4993293;28;20113;-83
2021/12/03 02:26:57;;;;;;;57.22;23.75;;;-1.00;99.90;;;;;;4960471;28;20494;-83
2021/12/03 02:29:23;;;;;;;43.85;19.77;;;-1.00;99.90;;;;;;4960038;28;20125;-83
2021/12/03 02:31:48;;;;;;;50.65;21.27;;;-1.00;99.90;;;;;;4976362;28;20026;-83
2021/12/03 02:34:14;;;;;;;46.20;20.98;;;-1.00;99.90;;;;;;4959831;28;20387;-84
2021/12/03 02:36:40;;;;;;;49.85;21.50;;;-1.00;99.90;;;;;;4993475;28;20022;-84
2021/12/03 02:39:05;;;;;;;49.00;21.10;;;-1.00;99.90;;;;;;4976165;28;20045;-84
2021/12/03 02:41:31;;;;;;;47.72;20.80;;;-1.10;99.90;;;;;;4960219;28;20151;-84
2021/12/03 02:43:57;;;;;;;46.30;20.20;;;-1.20;99.90;;;;;;4976100;28;20486;-84
2021/12/03 02:46:23;;;;;;;41.80;18.27;;;-1.20;99.90;;;;;;4959832;28;20038;-83
2021/12/03 02:48:49;;;;;;;36.67;17.08;;;-1.30;99.90;;;;;;4961164;28;20026;-83
2021/12/03 02:51:14;;;;;;;42.85;18.90;;;-1.30;99.90;;;;;;4963548;28;20033;-83
2021/12/03 02:53:41;;;;;;;39.22;18.33;;;-1.30;99.90;;;;;;4963389;28;20026;-84
2021/12/03 02:56:08;;;;;;;44.60;18.70;;;-1.30;99.90;;;;;;4963422;28;20034;-83
2021/12/03 02:58:35;;;;;;;44.42;19.42;;;-1.30;99.90;;;;;;4979726;28;20034;-84
2021/12/03 03:01:02;;;;;;;42.40;18.65;;;-1.30;99.90;;;;;;4963392;28;20034;-84
2021/12/03 03:03:28;;;;;;;41.33;17.75;;;-1.40;99.90;;;;;;4979491;28;20088;-83
2021/12/03 03:05:56;;;;;;;40.38;17.70;;;-1.30;99.90;;;;;;4963658;28;20397;-83
2021/12/03 03:08:23;;;;;;;42.88;18.98;;;-1.40;99.90;;;;;;4979311;28;20027;-84
2021/12/03 03:10:49;;;;;;;39.15;17.70;;;-1.40;99.90;;;;;;4979501;28;20129;-84
2021/12/03 03:13:15;;;;;;;37.75;17.90;;;-1.40;99.90;;;;;;4979203;28;20113;-83
2021/12/03 03:15:40;;;;;;;39.67;16.90;;;-1.60;99.90;;;;;;4979363;28;20097;-84
2021/12/03 03:18:17;;;;;;;41.58;18.42;;;-1.70;99.90;;;;;;4978968;28;20034;-84
2021/12/03 03:20:44;;;;;;;39.65;17.60;;;-1.80;99.90;;;;;;4979079;28;20034;-83
2021/12/03 03:23:12;;;;;;;48.47;19.58;;;-1.90;99.90;;;;;;4962670;28;20034;-83
2021/12/03 03:25:42;;;;;;;47.33;19.45;;;-2.00;99.90;;;;;;4963084;28;20038;-83
2021/12/03 03:28:22;;;;;;;47.05;19.50;;;-2.00;99.90;;;;;;4963112;28;20038;-83
2021/12/03 03:30:49;;;;;;;47.90;17.13;;;-2.10;99.90;;;;;;4979272;28;20042;-83
2021/12/03 03:33:16;;;;;;;39.05;16.17;;;-2.20;99.90;;;;;;4962672;28;20030;-83
2021/12/03 03:35:42;;;;;;;40.75;17.98;;;-2.20;99.90;;;;;;4962738;28;20105;-84
2021/12/03 03:38:09;;;;;;;45.85;17.58;;;-2.30;99.90;;;;;;4962897;28;20474;-83
2021/12/03 03:40:36;;;;;;;41.33;17.42;;;-2.40;99.90;;;;;;4996157;28;20112;-84
2021/12/03 03:43:03;;;;;;;42.95;19.58;;;-2.50;99.90;;;;;;4978822;28;20521;-83
2021/12/03 03:45:30;;;;;;;44.10;19.60;;;-2.40;99.90;;;;;;4962456;28;20038;-83
2021/12/03 03:47:57;;;;;;;44.33;17.67;;;-2.40;99.90;;;;;;4962249;28;20033;-83
2021/12/03 03:50:23;;;;;;;43.47;17.83;;;-2.50;99.90;;;;;;4962325;28;20117;-83
2021/12/03 03:52:51;;;;;;;43.95;18.70;;;-2.50;99.90;;;;;;4962191;28;20030;-83
2021/12/03 03:55:18;;;;;;;48.78;21.00;;;-2.30;99.90;;;;;;4978264;28;20022;-83
2021/12/03 03:57:46;;;;;;;49.08;20.20;;;-2.20;99.90;;;;;;4962317;28;20026;-83
2021/12/03 04:00:15;;;;;;;46.38;20.75;;;-1.90;99.90;;;;;;4961567;28;20402;-83
2021/12/03 04:02:41;;;;;;;58.13;26.15;;;-1.80;99.90;;;;;;4978250;28;20164;-83
2021/12/03 04:05:07;;;;;;;1022.67;405.00;;;-1.70;99.90;;;;;;4977925;28;20545;-83
2021/12/03 04:07:33;;;;;;;66.28;26.45;;;-1.70;99.90;;;;;;4962226;28;20045;-84
2021/12/03 04:09:59;;;;;;;51.50;22.17;;;-1.60;99.90;;;;;;4978158;28;20416;-83
2021/12/03 04:12:25;;;;;;;48.15;21.20;;;-1.60;99.90;;;;;;4962289;28;20419;-83
2021/12/03 04:14:51;;;;;;;49.38;20.88;;;-1.50;99.90;;;;;;4961929;28;20390;-83
2021/12/03 04:17:17;;;;;;;43.33;20.98;;;-1.50;99.90;;;;;;4978108;28;20382;-84
2021/12/03 04:19:43;;;;;;;48.75;21.33;;;-1.50;99.90;;;;;;4978314;28;20037;-83
2021/12/03 04:22:13;;;;;;;47.60;21.75;;;-1.40;99.90;;;;;;4962042;28;20031;-83
2021/12/03 04:24:39;;;;;;;42.60;20.17;;;-1.40;99.90;;;;;;4961945;28;20046;-83
2021/12/03 04:27:05;;;;;;;46.88;21.30;;;-1.30;99.90;;;;;;4961905;28;20081;-83
2021/12/03 04:29:31;;;;;;;45.85;21.85;;;-1.30;99.90;;;;;;4961879;28;20125;-84
2021/12/03 04:31:57;;;;;;;48.03;21.73;;;-1.30;99.90;;;;;;4961897;28;20130;-83
2021/12/03 04:34:22;;;;;;;47.55;21.55;;;-1.30;99.90;;;;;;4961556;28;20026;-83
2021/12/03 04:36:48;;;;;;;48.10;20.98;;;-1.30;99.90;;;;;;4961814;28;20033;-83
2021/12/03 04:39:14;;;;;;;40.50;19.83;;;-1.30;99.90;;;;;;4961598;28;20045;-84
2021/12/03 04:41:40;;;;;;;42.60;20.77;;;-1.30;99.90;;;;;;4961664;28;20145;-83
2021/12/03 04:44:05;;;;;;;46.38;19.60;;;-1.30;99.90;;;;;;4977604;28;20493;-83
2021/12/03 04:46:31;;;;;;;43.00;18.88;;;-1.30;99.90;;;;;;4977829;28;20045;-83
2021/12/03 04:48:57;;;;;;;41.15;18.77;;;-1.40;99.90;;;;;;4977527;28;20074;-83
2021/12/03 04:51:23;;;;;;;41.08;18.10;;;-1.40;99.90;;;;;;4977595;28;20030;-83
2021/12/03 04:53:48;;;;;;;40.10;19.27;;;-1.40;99.90;;;;;;4977301;28;20026;-84
2021/12/03 04:56:14;;;;;;;41.78;20.08;;;-1.40;99.90;;;;;;4977589;28;20033;-83
2021/12/03 04:58:40;;;;;;;36.95;19.00;;;-1.40;99.90;;;;;;4961345;28;20034;-84
2021/12/03 05:01:06;;;;;;;42.20;18.77;;;-1.40;99.90;;;;;;4961538;28;20406;-83
2021/12/03 05:03:32;;;;;;;41.85;19.17;;;-1.30;99.90;;;;;;4977005;28;20034;-83
2021/12/03 05:06:01;;;;;;;39.22;19.80;;;-1.40;99.90;;;;;;4961577;28;20038;-83
2021/12/03 05:08:30;;;;;;;47.05;20.75;;;-1.40;99.90;;;;;;4960847;28;20042;-84
2021/12/03 05:10:57;;;;;;;42.58;18.38;;;-1.40;99.90;;;;;;4961208;28;20276;-83
2021/12/03 05:13:25;;;;;;;38.72;18.05;;;-1.50;99.90;;;;;;4960278;28;20061;-83
2021/12/03 05:15:51;;;;;;;49.70;20.05;;;-1.60;99.90;;;;;;4977306;28;20371;-84
2021/12/03 05:18:21;;;;;;;46.95;20.35;;;-1.60;99.90;;;;;;4960981;28;20030;-83
2021/12/03 05:20:49;;;;;;;42.40;19.75;;;-1.70;99.90;;;;;;4961110;28;20093;-84
2021/12/03 05:23:15;;;;;;;49.35;21.27;;;-1.70;99.90;;;;;;4976952;28;20034;-83
2021/12/03 05:25:42;;;;;;;45.80;20.85;;;-1.80;99.90;;;;;;4960983;28;20042;-84
2021/12/03 05:28:09;;;;;;;47.03;21.80;;;-1.90;99.90;;;;;;4961097;28;20042;-83
2021/12/03 05:30:35;;;;;;;47.72;21.02;;;-2.00;99.90;;;;;;4976981;28;20041;-83
2021/12/03 05:33:03;;;;;;;51.03;23.95;;;-2.00;99.90;;;;;;4961114;28;20121;-83
2021/12/03 05:35:28;;;;;;;60.55;25.75;;;-2.00;99.90;;;;;;4961197;28;20409;-84
2021/12/03 05:37:55;;;;;;;64.10;27.85;;;-1.90;99.90;;;;;;4960975;28;20026;-83
2021/12/03 05:40:21;;;;;;;62.20;27.02;;;-1.80;99.90;;;;;;4961057;28;20030;-83
2021/12/03 05:42:47;;;;;;;57.72;24.83;;;-1.70;99.90;;;;;;4977107;28;20034;-83
2021/12/03 05:45:20;;;;;;;59.15;23.98;;;-1.70;99.90;;;;;;4976978;28;20034;-83
2021/12/03 05:47:46;;;;;;;61.88;24.25;;;-1.80;99.90;;;;;;4976670;28;20125;-83
2021/12/03 05:50:13;;;;;;;51.40;20.60;;;-1.90;99.90;;;;;;4976765;28;20593;-83
2021/12/03 05:52:39;;;;;;;46.20;19.55;;;-2.00;99.90;;;;;;4976420;28;20066;-83
2021/12/03 05:55:07;;;;;;;48.63;19.83;;;-2.00;99.90;;;;;;4976689;28;20069;-83
2021/12/03 05:57:33;;;;;;;50.17;21.70;;;-2.00;99.90;;;;;;4976883;28;20030;-83
2021/12/03 05:59:59;;;;;;;47.67;20.38;;;-2.00;99.90;;;;;;4960920;28;20088;-83
2021/12/03 06:02:25;;;;;;;44.22;19.50;;;-2.10;99.90;;;;;;4977312;28;20034;-84
2021/12/03 06:04:51;;;;;;;44.83;20.10;;;-2.20;99.90;;;;;;4976379;28;20073;-83
2021/12/03 06:07:17;;;;;;;51.80;20.30;;;-2.20;99.90;;;;;;4960089;28;20449;-83
2021/12/03 06:09:43;;;;;;;45.83;20.00;;;-2.30;99.90;;;;;;4960109;28;20042;-83
2021/12/03 06:12:09;;;;;;;47.42;19.83;;;-2.20;99.90;;;;;;4960136;28;20116;-83
2021/12/03 06:14:35;;;;;;;49.25;19.90;;;-2.20;99.90;;;;;;4959855;28;20454;-83
2021/12/03 06:17:01;;;;;;;39.70;18.77;;;-2.20;99.90;;;;;;4959039;28;20037;-83
2021/12/03 06:19:26;;;;;;;52.35;20.63;;;-2.30;99.90;;;;;;4959752;28;20367;-83
2021/12/03 06:21:52;;;;;;;53.30;22.73;;;-2.50;99.90;;;;;;4975571;28;20044;-82
2021/12/03 06:24:20;;;;;;;54.53;22.75;;;-2.50;99.90;;;;;;4995422;28;20033;-82
2021/12/03 06:26:55;;;;;;;55.70;23.88;;;-2.60;99.90;;;;;;4963909;28;20421;-83
2021/12/03 06:29:21;;;;;;;62.67;27.17;;;-2.60;99.90;;;;;;4963862;28;20034;-83
2021/12/03 06:31:46;;;;;;;68.63;25.92;;;-2.70;99.90;;;;;;4980038;28;20026;-83
2021/12/03 06:34:12;;;;;;;76.20;24.80;;;-2.80;99.90;;;;;;4979504;28;20066;-83
2021/12/03 06:36:47;;;;;;;60.10;25.63;;;-2.80;99.90;;;;;;4980026;28;20081;-83
2021/12/03 06:39:13;;;;;;;70.93;27.35;;;-2.80;99.90;;;;;;4963481;28;20072;-83
2021/12/03 06:41:39;;;;;;;72.07;28.45;;;-2.70;99.90;;;;;;4979972;28;20058;-83
2021/12/03 06:44:08;;;;;;;175.57;34.22;;;-2.70;99.90;;;;;;4963163;28;20501;-82
2021/12/03 06:46:36;;;;;;;84.05;31.45;;;-2.60;99.90;;;;;;4963321;28;20506;-83
2021/12/03 06:49:03;;;;;;;261.48;40.13;;;-2.50;99.90;;;;;;4963398;28;20478;-83
2021/12/03 06:51:30;;;;;;;113.88;32.72;;;-2.50;99.90;;;;;;4963656;28;20026;-83
2021/12/03 06:54:02;;;;;;;99.95;32.63;;;-2.60;99.90;;;;;;4962885;28;20561;-83
2021/12/03 06:56:43;;;;;;;75.75;29.33;;;-2.60;99.90;;;;;;4963389;28;20038;-83
2021/12/03 06:59:10;;;;;;;73.28;29.90;;;-2.60;99.90;;;;;;4963252;28;20437;-83
2021/12/03 07:01:39;;;;;;;79.70;29.05;;;-2.70;99.90;;;;;;4963102;28;20050;-84
2021/12/03 07:04:05;;;;;;;68.38;26.67;;;-2.80;99.90;;;;;;4963264;28;20026;-84
2021/12/03 07:06:30;;;;;;;68.93;27.58;;;-2.80;99.90;;;;;;4979432;28;20371;-83
2021/12/03 07:08:56;;;;;;;79.30;28.38;;;-2.80;99.90;;;;;;4963046;28;20513;-85
2021/12/03 07:11:22;;;;;;;77.57;28.10;;;-2.90;99.90;;;;;;4963356;28;20049;-84
2021/12/03 07:13:48;;;;;;;76.90;27.58;;;-2.90;99.90;;;;;;4963193;28;20030;-84
2021/12/03 07:16:14;;;;;;;80.97;28.92;;;-2.90;99.90;;;;;;4963369;28;20022;-84
2021/12/03 07:18:40;;;;;;;85.63;29.05;;;-2.90;99.90;;;;;;4980684;28;20034;-84
2021/12/03 07:21:06;;;;;;;74.72;28.27;;;-3.00;99.90;;;;;;4979152;28;20030;-85
2021/12/03 07:23:32;;;;;;;82.82;27.90;;;-2.90;99.90;;;;;;4962453;28;20034;-85
2021/12/03 07:26:00;;;;;;;78.10;28.60;;;-2.90;99.90;;;;;;4965186;28;20048;-84
2021/12/03 07:28:26;;;;;;;94.60;28.88;;;-2.80;99.90;;;;;;4979104;28;20041;-85
2021/12/03 07:30:54;;;;;;;82.32;29.55;;;-2.80;99.90;;;;;;4979260;28;20038;-84
2021/12/03 07:33:20;;;;;;;79.45;29.88;;;-2.80;99.90;;;;;;4996093;28;20030;-85
2021/12/03 07:35:47;;;;;;;83.60;31.42;;;-2.80;99.90;;;;;;4961924;28;20038;-84
2021/12/03 07:38:17;;;;;;;95.60;32.50;;;-2.60;99.90;;;;;;4962843;28;20026;-85
2021/12/03 07:40:43;;;;;;;104.85;34.30;;;-2.50;99.90;;;;;;4962773;28;20111;-85
2021/12/03 07:43:09;;;;;;;103.70;35.20;;;-2.40;99.90;;;;;;4978552;28;20096;-85
2021/12/03 07:45:36;;;;;;;99.43;35.00;;;-2.30;99.90;;;;;;4978907;28;20058;-85
2021/12/03 07:48:02;;;;;;;113.70;39.75;;;-2.20;99.90;;;;;;4962624;28;20486;-84
2021/12/03 07:50:28;;;;;;;114.55;40.20;;;-2.10;99.90;;;;;;4962471;28;20045;-84
2021/12/03 07:52:54;;;;;;;110.93;36.70;;;-2.00;99.90;;;;;;4962184;28;20026;-85
2021/12/03 07:55:20;;;;;;;111.97;37.95;;;-1.90;99.90;;;;;;4962064;28;20092;-84
2021/12/03 07:57:46;;;;;;;114.35;37.58;;;-1.90;99.90;;;;;;4978198;28;20046;-84
2021/12/03 08:00:12;;;;;;;95.57;32.80;;;-1.80;99.90;;;;;;4978210;28;20036;-84
2021/12/03 08:02:38;;;;;;;101.13;35.63;;;-1.90;99.90;;;;;;4978343;28;20037;-85
2021/12/03 08:05:04;;;;;;;103.45;35.28;;;-1.80;99.90;;;;;;4961170;28;20034;-84
2021/12/03 08:07:30;;;;;;;107.15;36.95;;;-1.80;99.90;;;;;;4962140;28;20125;-84
2021/12/03 08:09:56;;;;;;;100.15;34.85;;;-1.80;99.90;;;;;;4962198;28;20088;-85
2021/12/03 08:12:22;;;;;;;96.10;35.20;;;-1.80;99.90;;;;;;4962517;28;20031;-84
2021/12/03 08:14:47;;;;;;;92.85;36.05;;;-1.80;99.90;;;;;;4962313;28;20054;-85
2021/12/03 08:17:13;;;;;;;86.88;35.20;;;-1.70;99.90;;;;;;4978477;28;20037;-85
2021/12/03 08:19:39;;;;;;;90.18;34.53;;;-1.70;99.90;;;;;;4962482;28;20030;-84
2021/12/03 08:22:05;;;;;;;86.63;33.53;;;-1.80;99.90;;;;;;4995603;28;20533;-84
2021/12/03 08:24:31;;;;;;;76.53;31.58;;;-1.70;99.90;;;;;;4962132;28;20030;-84
2021/12/03 08:26:57;;;;;;;83.90;33.55;;;-1.60;99.90;;;;;;4963807;28;20540;-84
2021/12/03 08:29:23;;;;;;;98.82;33.28;;;-1.60;99.90;;;;;;4978512;28;20035;-85
2021/12/03 08:31:48;;;;;;;85.43;32.58;;;-1.60;99.90;;;;;;4962037;28;20080;-84
2021/12/03 08:34:14;;;;;;;76.57;30.92;;;-1.50;99.90;;;;;;4978178;28;20029;-85
2021/12/03 08:36:40;;;;;;;86.88;34.72;;;-1.40;99.90;;;;;;4961985;28;20038;-85
2021/12/03 08:39:07;;;;;;;71.38;30.45;;;-1.40;99.90;;;;;;4961886;28;20508;-84
2021/12/03 08:41:34;;;;;;;68.78;29.67;;;-1.40;99.90;;;;;;4961895;28;20030;-85
2021/12/03 08:44:02;;;;;;;72.63;29.02;;;-1.30;99.90;;;;;;4961425;28;20057;-84
2021/12/03 08:46:36;;;;;;;62.38;27.10;;;-1.40;99.90;;;;;;4961564;28;20038;-85
2021/12/03 08:49:15;;;;;;;66.70;27.50;;;-1.40;99.90;;;;;;4977863;28;20030;-84
2021/12/03 08:56:54;;;;;;;44.00;21.63;;;-1.20;99.90;;;;;;4977625;28;20034;-85
2021/12/03 08:59:20;;;;;;;52.63;24.48;;;-1.10;99.90;;;;;;4961142;28;20033;-85
2021/12/03 09:01:46;;;;;;;43.45;20.15;;;-0.90;99.90;;;;;;4961383;28;20117;-85
2021/12/03 09:04:16;;;;;;;43.78;19.67;;;-0.90;99.90;;;;;;4977144;28;20081;-84
2021/12/03 09:06:41;;;;;;;40.50;17.73;;;-0.90;99.90;;;;;;4977559;28;20046;-84
2021/12/03 09:09:08;;;;;;;38.00;18.67;;;-0.90;99.90;;;;;;4961191;28;20049;-85
2021/12/03 09:11:37;;;;;;;38.13;17.48;;;-0.80;99.90;;;;;;4961156;28;20509;-84
2021/12/03 09:14:14;;;;;;;34.75;16.75;;;-0.80;99.90;;;;;;4977102;28;20176;-85
2021/12/03 09:16:40;;;;;;;35.50;16.23;;;-1.00;99.90;;;;;;4961043;28;20486;-85
2021/12/03 09:19:13;;;;;;;30.60;15.90;;;-1.00;99.90;;;;;;4961026;28;20583;-85
2021/12/03 09:22:04;;;;;;;28.98;15.48;;;-1.10;99.90;;;;;;4960825;28;20089;-85
2021/12/03 09:24:32;;;;;;;39.80;15.35;;;-1.10;99.90;;;;;;4976794;28;20030;-84
2021/12/03 09:26:58;;;;;;;32.88;15.13;;;-1.10;99.90;;;;;;4976965;28;20944;-84
2021/12/03 09:29:30;;;;;;;33.13;16.58;;;-1.00;99.90;;;;;;4960920;28;20068;-84
2021/12/03 09:31:58;;;;;;;33.63;14.48;;;-1.00;99.90;;;;;;4960796;28;20576;-84
2021/12/03 09:34:25;;;;;;;34.92;14.60;;;-0.90;99.90;;;;;;4976357;28;20031;-84
2021/12/03 09:36:51;;;;;;;30.02;15.27;;;-0.80;99.90;;;;;;4960600;28;20496;-85
2021/12/03 09:39:23;;;;;;;28.13;13.23;;;-0.80;99.90;;;;;;4976904;28;20026;-85
2021/12/03 09:41:51;;;;;;;24.08;12.70;;;-0.70;99.90;;;;;;4960892;28;20482;-85
2021/12/03 09:44:17;;;;;;;26.80;12.65;;;-0.80;99.90;;;;;;4976385;28;20482;-84
2021/12/03 09:46:44;;;;;;;25.75;13.07;;;-0.90;99.90;;;;;;4960293;28;20229;-85
2021/12/03 09:52:37;;;;;;;29.77;12.98;;;-1.00;99.90;;;;;;4964247;28;20045;-84
2021/12/03 09:55:09;;;;;;;28.95;13.32;;;-0.90;99.90;;;;;;4975924;28;20176;-84
2021/12/03 09:58:32;;;;;;;22.65;11.07;;;-1.00;99.90;;;;;;4960264;28;20124;-85
2021/12/03 10:00:43;;;;;;;26.95;12.77;;;-0.90;99.90;;;;;;4982990;28;20490;-85
2021/12/03 10:14:31;;;;;;;23.90;11.10;;;-0.90;99.90;;;;;;4976272;28;20023;-84
2021/12/03 10:20:37;;;;;;;21.75;10.20;;;-0.90;99.90;;;;;;4976498;28;20510;-85
2021/12/03 10:34:03;;;;;;;23.92;11.85;;;-0.80;99.90;;;;;;4993707;28;20038;-85
2021/12/03 10:39:21;;;;;;;27.77;12.60;;;-0.80;99.90;;;;;;4976383;28;20038;-85
2021/12/03 10:42:16;;;;;;;26.13;12.07;;;-0.80;99.90;;;;;;4959741;28;20062;-85
2021/12/03 10:45:15;;;;;;;27.40;12.15;;;-0.80;99.90;;;;;;4958372;28;20757;-86
2021/12/03 10:53:25;;;;;;;31.90;15.45;;;-0.80;99.90;;;;;;4976010;28;20234;-84
2021/12/03 11:39:25;;;;;;;29.55;14.48;;;-0.60;99.90;;;;;;4978601;28;20026;-85
2021/12/03 11:43:05;;;;;;;29.67;14.10;;;-0.50;99.90;;;;;;4962551;28;20030;-86
2021/12/03 13:36:25;;;;;;;27.77;12.23;;;0.10;99.90;;;;;;4965302;28;20505;-85
2021/12/03 14:01:33;;;;;;;25.20;11.13;;;0.30;99.90;;;;;;4976332;28;20035;-85
2021/12/03 14:08:52;;;;;;;26.30;11.60;;;0.40;99.90;;;;;;4976442;28;20398;-85
2021/12/03 14:56:16;;;;;;;22.30;9.95;;;-0.30;99.90;;;;;;4979689;28;20034;-84
2021/12/03 14:58:51;;;;;;;25.58;10.07;;;-0.30;99.90;;;;;;4963125;28;20054;-85
2021/12/03 15:09:19;;;;;;;25.27;10.30;;;-0.60;99.90;;;;;;4979059;28;20030;-85
2021/12/03 15:12:10;;;;;;;23.80;9.63;;;-0.60;99.90;;;;;;4962933;28;20502;-83
2021/12/03 15:14:57;;;;;;;27.45;11.98;;;-0.70;99.90;;;;;;4978365;28;20042;-85
2021/12/03 15:18:11;;;;;;;24.20;11.02;;;-0.70;99.90;;;;;;4998127;28;20038;-85
2021/12/03 15:20:22;;;;;;;25.88;11.20;;;-0.70;99.90;;;;;;4978513;28;20116;-85
2021/12/03 15:23:08;;;;;;;23.98;12.07;;;-0.70;99.90;;;;;;4963037;28;20034;-85
2021/12/03 16:05:23;;;;;;;25.02;12.25;;;-0.90;99.90;;;;;;4977296;28;20125;-84
2021/12/03 16:10:20;;;;;;;25.00;12.63;;;-0.90;99.90;;;;;;4977792;28;20022;-84
2021/12/03 16:26:12;;;;;;;27.58;12.93;;;-1.10;99.90;;;;;;4977192;28;20030;-84
2021/12/03 16:52:56;;;;;;;25.33;10.98;;;-0.70;99.90;;;;;;4977245;28;20027;-84
2021/12/03 16:55:22;;;;;;;30.13;11.45;;;-0.60;99.90;;;;;;4960804;28;20085;-84
2021/12/03 16:57:52;;;;;;;33.08;12.05;;;-0.60;99.90;;;;;;4961278;28;20027;-84
2021/12/03 17:01:02;;;;;;;19.50;10.45;;;-0.60;99.90;;;;;;4960972;28;20038;-84
2021/12/03 17:03:33;;;;;;;20.10;10.63;;;-0.60;99.90;;;;;;4973390;28;20136;-84
2021/12/03 17:49:15;;;;;;;26.88;10.00;;;-0.60;99.90;;;;;;4976486;28;20029;-84
2021/12/03 17:54:34;;;;;;;20.83;10.50;;;-0.60;99.90;;;;;;4993431;28;20030;-84
2021/12/03 17:57:07;;;;;;;21.00;11.30;;;-0.60;99.90;;;;;;4959841;28;20030;-84
2021/12/03 17:59:39;;;;;;;19.00;9.25;;;-0.60;99.90;;;;;;4959882;28;20114;-84
2021/12/03 18:05:22;;;;;;;38.70;17.23;;;-0.60;99.90;;;;;;4917056;29;20047;-84
2021/12/03 18:13:18;;;;;;;49.17;23.48;;;-0.50;99.90;;;;;;4976038;28;20089;-84
2021/12/03 18:56:33;;;;;;;87.78;37.47;;;-1.00;99.90;;;;;;4980131;28;20402;-84
2021/12/03 18:59:03;;;;;;;76.35;34.92;;;-1.00;99.90;;;;;;4979696;28;20477;-84
2021/12/03 19:01:34;;;;;;;129.85;50.75;;;-1.00;99.90;;;;;;4963931;28;20042;-84
2021/12/03 19:06:53;;;;;;;154.77;55.10;;;-0.90;99.90;;;;;;4981488;28;20046;-84
2021/12/03 19:09:44;;;;;;;93.05;37.08;;;-0.90;99.90;;;;;;4963204;28;20038;-85
2021/12/03 19:12:14;;;;;;;109.25;45.70;;;-1.00;99.90;;;;;;4963447;28;20049;-83
2021/12/03 19:14:47;;;;;;;75.72;34.47;;;-1.00;99.90;;;;;;4962920;28;20042;-83
2021/12/03 19:17:13;;;;;;;52.85;22.85;;;-1.10;99.90;;;;;;4979655;28;20038;-83
2021/12/03 19:19:43;;;;;;;78.50;31.00;;;-1.10;99.90;;;;;;4979141;28;20042;-85
2021/12/03 19:22:10;;;;;;;70.25;28.58;;;-1.10;99.90;;;;;;4979380;28;20054;-84
2021/12/03 19:24:36;;;;;;;52.03;23.40;;;-1.10;99.90;;;;;;4979220;28;20072;-85
2021/12/03 19:27:02;;;;;;;30.20;14.15;;;-1.20;99.90;;;;;;4963242;28;20054;-83
2021/12/03 19:29:31;;;;;;;28.52;12.85;;;-1.20;99.90;;;;;;4979169;28;20038;-84
2021/12/03 19:31:57;;;;;;;52.83;20.20;;;-1.20;99.90;;;;;;4961583;28;20083;-85
2021/12/03 19:34:24;;;;;;;36.28;17.10;;;-1.20;99.90;;;;;;4962641;28;20066;-85
2021/12/03 19:36:50;;;;;;;57.45;23.88;;;-1.30;99.90;;;;;;4962414;28;20486;-84
2021/12/03 19:39:18;;;;;;;31.33;12.90;;;-1.30;99.90;;;;;;4962925;28;20073;-85
2021/12/03 19:41:58;;;;;;;129.07;46.92;;;-1.20;99.90;;;;;;4978613;28;20534;-85
2021/12/03 19:44:40;;;;;;;203.63;76.75;;;-1.20;99.90;;;;;;4978990;28;20038;-84
2021/12/03 19:47:08;;;;;;;87.78;34.13;;;-1.20;99.90;;;;;;4979749;28;20749;-84
2021/12/03 19:49:41;;;;;;;80.43;30.50;;;-1.20;99.90;;;;;;4979370;28;20621;-84
2021/12/03 19:52:24;;;;;;;66.60;28.90;;;-1.20;99.90;;;;;;4962400;28;20031;-85
2021/12/03 19:54:51;;;;;;;53.83;25.95;;;-1.10;99.90;;;;;;4962442;28;20386;-84
2021/12/03 19:57:18;;;;;;;25.52;12.65;;;-1.10;99.90;;;;;;4962336;28;20041;-84
2021/12/03 19:59:43;;;;;;;33.63;18.17;;;-1.10;99.90;;;;;;4978342;28;20406;-84
2021/12/03 20:02:09;;;;;;;39.88;18.45;;;-1.00;99.90;;;;;;4946467;28;20080;-83
2021/12/03 20:04:35;;;;;;;36.45;16.92;;;-0.90;99.90;;;;;;4961934;28;20514;-83
2021/12/03 20:07:01;;;;;;;31.42;13.68;;;-0.90;99.90;;;;;;4962122;28;20093;-84
2021/12/03 20:09:35;;;;;;;33.78;14.30;;;-0.90;99.90;;;;;;4961633;28;20030;-84